createdAt,value
2018-03-19T00:00:00.860Z,81.60
2018-03-19T00:02:28.382Z,81.20
2018-03-19T00:04:55.924Z,80.90
2018-03-19T00:07:23.449Z,81.40
2018-03-19T00:09:50.974Z,80.50
2018-03-19T00:12:19.301Z,80.90
2018-03-19T00:14:46.835Z,80.90
2018-03-19T00:17:14.364Z,81.70
2018-03-19T00:19:42.678Z,81.60
2018-03-19T00:22:10.981Z,81.60
2018-03-19T00:24:38.500Z,81.20
2018-03-19T00:27:06.066Z,80.80
2018-03-19T00:29:33.607Z,81.40
2018-03-19T00:32:01.140Z,80.90
2018-03-19T00:34:28.708Z,81.40
2018-03-19T00:36:57.000Z,82.20
2018-03-19T00:39:25.287Z,81.50
2018-03-19T00:41:52.838Z,81.50
2018-03-19T00:44:20.372Z,81.50
2018-03-19T00:46:48.677Z,82.10
2018-03-19T00:49:16.256Z,82.10
2018-03-19T00:51:43.777Z,82.10
2018-03-19T00:54:12.087Z,81.00
2018-03-19T00:56:39.636Z,81.00
2018-03-19T00:59:07.156Z,80.20
2018-03-19T01:01:34.685Z,80.20
2018-03-19T01:04:02.292Z,81.00
2018-03-19T01:06:30.603Z,81.80
2018-03-19T01:08:58.153Z,81.80
2018-03-19T01:11:25.724Z,81.80
2018-03-19T01:13:53.242Z,82.50
2018-03-19T01:16:21.556Z,83.20
2018-03-19T01:18:49.117Z,83.20
2018-03-19T01:21:16.636Z,83.60
2018-03-19T01:23:44.944Z,84.10
2018-03-19T01:26:12.507Z,83.40
2018-03-19T01:28:40.045Z,83.40
2018-03-19T01:31:08.352Z,83.30
2018-03-19T01:33:35.914Z,83.30
2018-03-19T01:36:03.443Z,83.10
2018-03-19T01:38:31.743Z,82.80
2018-03-19T01:40:59.283Z,82.80
2018-03-19T01:43:26.802Z,82.30
2018-03-19T01:45:54.345Z,83.20
2018-03-19T01:48:21.898Z,82.30
2018-03-19T01:50:49.435Z,81.50
2018-03-19T01:53:16.974Z,82.20
2018-03-19T01:55:44.532Z,82.40
2018-03-19T01:58:12.826Z,84.00
2018-03-19T02:00:40.357Z,84.00
2018-03-19T02:03:08.687Z,84.20
2018-03-19T02:05:36.220Z,84.20
2018-03-19T02:08:03.749Z,84.40
2018-03-19T02:10:32.071Z,83.90
2018-03-19T02:12:59.600Z,83.90
2018-03-19T02:15:27.895Z,85.00
2018-03-19T02:17:55.439Z,85.00
2018-03-19T02:20:23.738Z,85.60
2018-03-19T02:22:51.276Z,85.60
2018-03-19T02:25:19.610Z,85.70
2018-03-19T02:27:47.138Z,85.70
2018-03-19T02:30:14.684Z,85.90
2018-03-19T02:32:42.248Z,86.40
2018-03-19T02:35:09.778Z,87.30
2018-03-19T02:37:38.082Z,87.80
2018-03-19T02:40:05.621Z,87.80
2018-03-19T02:42:33.924Z,87.90
2018-03-19T02:45:01.481Z,87.90
2018-03-19T02:47:29.068Z,88.30
2018-03-19T02:49:56.589Z,88.90
2018-03-19T02:52:24.137Z,88.30
2018-03-19T02:54:51.707Z,88.40
2018-03-19T02:57:19.252Z,88.00
2018-03-19T02:59:47.552Z,88.20
2018-03-19T03:02:15.104Z,88.10
2018-03-19T03:04:42.652Z,88.50
2018-03-19T03:07:10.185Z,89.10
2018-03-19T03:09:37.743Z,89.60
2018-03-19T03:12:05.274Z,88.70
2018-03-19T03:14:32.820Z,89.40
2018-03-19T03:17:00.376Z,89.40
2018-03-19T03:19:27.920Z,89.40
2018-03-19T03:21:55.449Z,89.40
2018-03-19T03:24:23.790Z,89.50
2018-03-19T03:26:51.335Z,89.50
2018-03-19T03:29:18.858Z,88.50
2018-03-19T03:31:47.199Z,88.30
2018-03-19T03:34:14.727Z,88.30
2018-03-19T03:36:42.296Z,89.00
2018-03-19T03:39:09.855Z,89.20
2018-03-19T03:41:37.399Z,88.80
2018-03-19T03:44:04.942Z,88.30
2018-03-19T03:46:32.529Z,88.20
2018-03-19T03:49:00.063Z,88.30
2018-03-19T03:51:27.587Z,88.50
2018-03-19T03:53:55.139Z,88.70
2018-03-19T03:56:22.683Z,88.70
2018-03-19T03:58:50.223Z,89.20
2018-03-19T04:01:17.780Z,89.40
2018-03-19T04:03:45.332Z,88.70
2018-03-19T04:06:12.851Z,88.50
2018-03-19T04:08:41.172Z,88.30
2018-03-19T04:11:08.684Z,88.30
2018-03-19T04:13:36.975Z,88.10
2018-03-19T04:16:05.305Z,88.30
2018-03-19T04:18:32.851Z,88.30
2018-03-19T04:21:00.386Z,87.90
2018-03-19T04:23:27.958Z,87.80
2018-03-19T04:25:55.479Z,87.70
2018-03-19T04:28:23.774Z,89.20
2018-03-19T04:30:51.319Z,89.20
2018-03-19T04:33:19.625Z,90.00
2018-03-19T04:35:47.161Z,90.00
2018-03-19T04:38:15.469Z,89.70
2018-03-19T04:40:42.996Z,89.60
2018-03-19T04:43:11.295Z,90.00
2018-03-19T04:45:39.324Z,90.00
2018-03-19T04:48:06.875Z,90.00
2018-03-19T04:50:34.419Z,89.80
2018-03-19T04:53:01.975Z,89.70
2018-03-19T04:55:29.504Z,89.70
2018-03-19T04:57:57.070Z,90.10
2018-03-19T05:00:24.633Z,90.00
2018-03-19T05:02:52.191Z,90.00
2018-03-19T05:05:19.702Z,89.70
2018-03-19T05:07:48.027Z,90.00
2018-03-19T05:10:15.567Z,89.60
2018-03-19T05:12:43.107Z,89.40
2018-03-19T05:15:11.448Z,89.10
2018-03-19T05:17:38.981Z,89.10
2018-03-19T05:20:06.516Z,89.30
2018-03-19T05:22:34.067Z,89.20
2018-03-19T05:25:02.351Z,89.70
2018-03-19T05:27:29.885Z,89.60
2018-03-19T05:29:57.455Z,89.40
2018-03-19T05:32:25.767Z,89.90
2018-03-19T05:34:53.307Z,89.90
2018-03-19T05:37:20.850Z,90.00
2018-03-19T05:39:49.167Z,90.20
2018-03-19T05:42:16.689Z,90.20
2018-03-19T05:44:45.031Z,89.90
2018-03-19T05:47:12.559Z,89.90
2018-03-19T05:49:40.093Z,90.10
2018-03-19T05:52:08.399Z,89.80
2018-03-19T05:54:35.925Z,89.90
2018-03-19T05:57:04.220Z,90.00
2018-03-19T05:59:31.773Z,90.00
2018-03-19T06:01:59.307Z,90.00
2018-03-19T06:04:27.610Z,90.00
2018-03-19T06:06:55.154Z,90.00
2018-03-19T06:09:23.458Z,90.10
2018-03-19T06:11:51.005Z,90.10
2018-03-19T06:14:18.598Z,89.30
2018-03-19T06:16:46.462Z,89.50
2018-03-19T06:19:14.011Z,89.30
2018-03-19T06:21:41.573Z,89.30
2018-03-19T06:24:09.117Z,89.10
2018-03-19T06:26:36.650Z,89.20
2018-03-19T06:29:04.980Z,89.10
2018-03-19T06:31:32.507Z,89.20
2018-03-19T06:34:00.041Z,88.80
2018-03-19T06:36:28.382Z,87.50
2018-03-19T06:38:55.913Z,87.50
2018-03-19T06:41:23.436Z,88.10
2018-03-19T06:43:51.781Z,87.30
2018-03-19T06:46:19.420Z,87.30
2018-03-19T06:48:46.956Z,87.40
2018-03-19T06:51:14.517Z,86.20
2018-03-19T06:53:42.055Z,86.10
2018-03-19T06:56:10.363Z,85.60
2018-03-19T06:58:37.931Z,85.70
2018-03-19T07:01:05.463Z,85.60
2018-03-19T07:03:33.756Z,86.30
2018-03-19T07:06:01.315Z,86.30
2018-03-19T07:08:28.839Z,86.00
2018-03-19T07:10:57.146Z,85.50
2018-03-19T07:13:24.695Z,85.20
2018-03-19T07:15:52.240Z,86.30
2018-03-19T07:18:20.548Z,85.20
2018-03-19T07:20:48.120Z,85.20
2018-03-19T07:23:15.645Z,85.90
2018-03-19T07:25:43.956Z,84.60
2018-03-19T07:28:11.514Z,84.60
2018-03-19T07:30:39.061Z,85.10
2018-03-19T07:33:06.580Z,85.30
2018-03-19T07:35:34.910Z,86.10
2018-03-19T07:38:02.446Z,86.10
2018-03-19T07:40:29.965Z,85.50
2018-03-19T07:42:57.509Z,85.20
2018-03-19T07:45:25.037Z,84.70
2018-03-19T07:47:52.587Z,83.90
2018-03-19T07:50:20.130Z,82.50
2018-03-19T07:52:48.543Z,82.90
2018-03-19T07:55:16.076Z,83.00
2018-03-19T07:57:43.638Z,83.20
2018-03-19T08:00:11.190Z,83.50
2018-03-19T08:02:39.484Z,83.80
2018-03-19T08:05:07.051Z,83.80
2018-03-19T08:07:34.579Z,82.90
2018-03-19T08:10:02.891Z,83.70
2018-03-19T08:12:30.460Z,83.70
2018-03-19T08:14:57.984Z,83.70
2018-03-19T08:17:25.541Z,83.00
2018-03-19T08:19:53.090Z,81.30
2018-03-19T08:22:21.395Z,82.40
2018-03-19T08:24:48.927Z,82.40
2018-03-19T08:27:17.242Z,83.90
2018-03-19T08:29:44.762Z,83.90
2018-03-19T08:32:13.054Z,83.30
2018-03-19T08:34:40.628Z,83.30
2018-03-19T08:37:08.164Z,83.30
2018-03-19T08:39:36.462Z,82.30
2018-03-19T08:42:04.019Z,82.20
2018-03-19T08:44:31.546Z,81.70
2018-03-19T08:46:59.839Z,82.30
2018-03-19T08:49:27.389Z,82.30
2018-03-19T08:51:55.676Z,83.40
2018-03-19T08:54:23.961Z,83.30
2018-03-19T08:56:51.520Z,83.20
2018-03-19T08:59:19.062Z,81.40
2018-03-19T09:01:47.356Z,83.30
2018-03-19T09:04:14.985Z,83.20
2018-03-19T09:06:42.702Z,83.10
2018-03-19T09:09:10.293Z,82.90
2018-03-19T09:11:38.633Z,82.80
2018-03-19T09:14:06.173Z,82.90
2018-03-19T09:16:33.707Z,83.70
2018-03-19T09:19:02.033Z,81.80
2018-03-19T09:21:29.579Z,81.20
2018-03-19T09:23:57.121Z,82.40
2018-03-19T09:26:25.446Z,82.00
2018-03-19T09:28:52.963Z,82.00
2018-03-19T09:31:20.504Z,81.50
2018-03-19T09:33:48.820Z,81.80
2018-03-19T09:36:16.359Z,81.80
2018-03-19T09:38:43.930Z,81.60
2018-03-19T09:41:11.500Z,80.60
2018-03-19T09:43:39.025Z,81.20
2018-03-19T09:46:07.319Z,81.60
2018-03-19T09:48:34.881Z,81.50
2018-03-19T09:51:02.415Z,83.10
2018-03-19T09:53:30.753Z,82.70
2018-03-19T09:55:58.295Z,82.70
2018-03-19T09:58:25.823Z,82.20
2018-03-19T10:00:53.359Z,81.90
2018-03-19T10:03:21.695Z,80.60
2018-03-19T10:05:49.248Z,80.60
2018-03-19T10:08:16.774Z,80.00
2018-03-19T10:10:44.364Z,80.10
2018-03-19T10:13:11.905Z,80.40
2018-03-19T10:15:39.951Z,80.10
2018-03-19T10:18:08.291Z,80.00
2018-03-19T10:20:35.839Z,79.90
2018-03-19T10:23:03.367Z,78.60
2018-03-19T10:25:30.939Z,79.80
2018-03-19T10:27:58.473Z,79.50
2018-03-19T10:30:26.758Z,78.10
2018-03-19T10:32:55.088Z,78.30
2018-03-19T10:35:22.625Z,78.30
2018-03-19T10:37:50.150Z,78.20
2018-03-19T10:40:17.734Z,79.00
2018-03-19T10:42:45.262Z,80.00
2018-03-19T10:45:12.817Z,81.00
2018-03-19T10:47:41.147Z,79.00
2018-03-19T10:50:08.691Z,79.00
2018-03-19T10:52:36.215Z,79.10
2018-03-19T10:55:04.541Z,80.60
2018-03-19T10:57:32.067Z,80.60
2018-03-19T10:59:59.611Z,80.10
2018-03-19T11:02:27.948Z,79.60
2018-03-19T11:08:08.741Z,78.10
2018-03-19T11:10:36.290Z,79.50
2018-03-19T11:13:03.916Z,80.80
2018-03-19T11:15:31.481Z,80.00
2018-03-19T11:17:59.017Z,78.80
2018-03-19T11:20:27.315Z,79.00
2018-03-19T11:22:54.888Z,79.00
2018-03-19T11:25:22.405Z,78.30
2018-03-19T11:27:50.706Z,79.00
2018-03-19T11:30:18.250Z,79.00
2018-03-19T11:32:46.568Z,78.20
2018-03-19T11:35:14.102Z,78.20
2018-03-19T11:37:41.652Z,78.10
2018-03-19T11:40:09.182Z,78.70
2018-03-19T11:42:36.725Z,77.70
2018-03-19T11:45:04.288Z,78.30
2018-03-19T11:47:31.838Z,77.10
2018-03-19T11:49:59.357Z,77.10
2018-03-19T11:52:26.928Z,76.90
2018-03-19T11:54:54.463Z,77.70
2018-03-19T11:57:22.756Z,79.20
2018-03-19T11:59:50.327Z,79.20
2018-03-19T12:02:17.891Z,78.80
2018-03-19T12:04:45.422Z,77.20
2018-03-19T12:07:13.751Z,78.50
2018-03-19T12:09:41.273Z,78.60
2018-03-19T12:12:08.800Z,78.40
2018-03-19T12:14:37.126Z,77.70
2018-03-19T12:17:04.656Z,77.60
2018-03-19T12:19:32.946Z,79.00
2018-03-19T12:22:00.520Z,79.00
2018-03-19T12:24:28.056Z,77.60
2018-03-19T12:26:55.576Z,77.10
2018-03-19T12:29:23.149Z,77.20
2018-03-19T12:31:50.709Z,78.90
2018-03-19T12:34:19.029Z,79.30
2018-03-19T12:36:46.607Z,79.20
2018-03-19T12:39:14.138Z,79.60
2018-03-19T12:41:41.653Z,79.30
2018-03-19T12:44:09.227Z,79.50
2018-03-19T12:46:37.533Z,79.10
2018-03-19T12:49:05.075Z,79.10
2018-03-19T12:51:32.639Z,79.10
2018-03-19T12:54:00.168Z,80.00
2018-03-19T12:56:27.719Z,79.20
2018-03-19T12:58:55.284Z,80.20
2018-03-19T13:01:22.854Z,80.10
2018-03-19T13:03:51.179Z,81.70
2018-03-19T13:06:18.727Z,81.70
2018-03-19T13:08:46.263Z,81.70
2018-03-19T13:11:14.564Z,81.90
2018-03-19T13:13:42.112Z,82.00
2018-03-19T13:16:09.649Z,82.60
2018-03-19T13:18:37.946Z,83.60
2018-03-19T13:21:05.513Z,83.60
2018-03-19T13:23:33.084Z,82.60
2018-03-19T13:26:01.349Z,83.20
2018-03-19T13:28:28.897Z,83.10
2018-03-19T13:30:56.448Z,82.90
2018-03-19T13:33:24.731Z,82.10
2018-03-19T13:35:53.062Z,82.80
2018-03-19T13:38:20.586Z,82.80
2018-03-19T13:40:48.115Z,82.10
2018-03-19T13:43:16.430Z,84.20
2018-03-19T13:45:43.972Z,84.30
2018-03-19T13:48:11.502Z,83.90
2018-03-19T13:50:39.065Z,84.10
2018-03-19T13:53:07.358Z,84.40
2018-03-19T13:55:35.649Z,83.30
2018-03-19T13:58:03.199Z,83.30
2018-03-19T14:00:30.735Z,83.30
2018-03-19T14:02:59.027Z,83.60
2018-03-19T14:05:27.334Z,83.30
2018-03-19T14:07:54.872Z,83.30
2018-03-19T14:10:22.400Z,84.20
2018-03-19T14:12:49.949Z,83.30
2018-03-19T14:15:17.492Z,82.00
2018-03-19T14:17:45.137Z,82.80
2018-03-19T14:20:12.702Z,83.30
2018-03-19T14:22:40.239Z,83.20
2018-03-19T14:25:07.765Z,81.20
2018-03-19T14:27:36.170Z,81.70
2018-03-19T14:30:03.630Z,81.60
2018-03-19T14:32:31.159Z,81.10
2018-03-19T14:34:59.484Z,81.20
2018-03-19T14:37:27.025Z,81.20
2018-03-19T14:39:54.549Z,80.40
2018-03-19T14:42:22.116Z,80.20
2018-03-19T14:44:50.431Z,81.50
2018-03-19T14:47:17.962Z,81.50
2018-03-19T14:49:45.576Z,80.50
2018-03-19T14:52:13.103Z,79.90
2018-03-19T14:54:40.666Z,80.20
2018-03-19T14:57:08.234Z,80.90
2018-03-19T14:59:35.803Z,81.10
2018-03-19T15:02:03.328Z,81.10
2018-03-19T15:04:30.935Z,81.80
2018-03-19T15:06:58.438Z,81.60
2018-03-19T15:09:26.723Z,81.70
2018-03-19T15:11:54.283Z,81.60
2018-03-19T15:14:21.807Z,81.40
2018-03-19T15:16:49.328Z,81.70
2018-03-19T15:19:16.902Z,81.30
2018-03-19T15:21:44.447Z,81.00
2018-03-19T15:24:11.989Z,81.30
2018-03-19T15:26:39.546Z,81.40
2018-03-19T15:29:07.072Z,82.10
2018-03-19T15:31:35.381Z,82.70
2018-03-19T15:34:02.945Z,82.70
2018-03-19T15:36:30.477Z,83.00
2018-03-19T15:38:58.772Z,84.60
2018-03-19T15:41:26.326Z,84.70
2018-03-19T15:43:53.856Z,83.90
2018-03-19T15:46:21.378Z,85.70
2018-03-19T15:48:48.934Z,85.70
2018-03-19T15:51:16.485Z,86.70
2018-03-19T15:53:44.012Z,86.20
2018-03-19T15:56:12.337Z,87.70
2018-03-19T15:58:40.089Z,87.70
2018-03-19T16:01:07.655Z,88.20
2018-03-19T16:03:35.204Z,88.40
2018-03-19T16:06:02.750Z,87.00
2018-03-19T16:08:30.289Z,87.20
2018-03-19T16:10:58.620Z,88.50
2018-03-19T16:13:26.171Z,88.50
2018-03-19T16:15:53.707Z,87.90
2018-03-19T16:18:21.268Z,87.90
2018-03-19T16:20:48.806Z,88.80
2018-03-19T16:23:17.108Z,88.80
2018-03-19T16:25:44.659Z,88.70
2018-03-19T16:28:12.211Z,87.90
2018-03-19T16:30:39.798Z,87.70
2018-03-19T16:33:07.374Z,88.10
2018-03-19T16:35:34.894Z,88.00
2018-03-19T16:38:02.420Z,88.30
2018-03-19T16:40:30.041Z,88.50
2018-03-19T16:42:57.580Z,88.70
2018-03-19T16:45:25.275Z,88.40
2018-03-19T16:47:52.860Z,88.20
2018-03-19T16:50:20.388Z,89.10
2018-03-19T16:52:48.699Z,90.00
2018-03-19T16:55:16.259Z,90.00
2018-03-19T16:57:43.873Z,90.00
2018-03-19T17:00:11.416Z,89.90
2018-03-19T17:02:38.988Z,89.90
2018-03-19T17:05:06.525Z,90.00
2018-03-19T17:07:34.058Z,90.10
2018-03-19T17:10:02.384Z,90.20
2018-03-19T17:12:29.926Z,90.20
2018-03-19T17:14:57.454Z,90.30
2018-03-19T17:17:25.010Z,90.20
2018-03-19T17:19:52.539Z,90.30
2018-03-19T17:22:20.064Z,90.30
2018-03-19T17:24:47.620Z,90.10
2018-03-19T17:27:15.144Z,90.20
2018-03-19T17:29:42.693Z,90.20
2018-03-19T17:32:10.271Z,90.40
2018-03-19T17:34:38.572Z,90.30
2018-03-19T17:37:06.093Z,90.30
2018-03-19T17:39:33.677Z,90.50
2018-03-19T17:42:01.992Z,90.50
2018-03-19T17:44:29.523Z,90.50
2018-03-19T17:46:57.099Z,90.50
2018-03-19T17:49:24.652Z,90.60
2018-03-19T17:51:52.198Z,90.50
2018-03-19T17:54:19.790Z,90.40
2018-03-19T17:56:47.310Z,90.50
2018-03-19T17:59:15.607Z,90.30
2018-03-19T18:01:43.163Z,90.30
2018-03-19T18:04:10.697Z,90.30
2018-03-19T18:06:39.003Z,90.50
2018-03-19T18:09:06.568Z,90.50
2018-03-19T18:11:34.127Z,90.50
2018-03-19T18:14:01.684Z,90.40
2018-03-19T18:16:29.239Z,90.60
2018-03-19T18:18:56.776Z,90.60
2018-03-19T18:21:25.069Z,90.70
2018-03-19T18:23:52.614Z,90.70
2018-03-19T18:26:20.904Z,91.00
2018-03-19T18:28:48.452Z,91.00
2018-03-19T18:31:16.775Z,91.00
2018-03-19T18:33:44.318Z,91.00
2018-03-19T18:36:11.867Z,91.00
2018-03-19T18:38:39.432Z,91.00
2018-03-19T18:41:06.973Z,91.00
2018-03-19T18:43:34.516Z,91.10
2018-03-19T18:46:02.891Z,90.70
2018-03-19T18:48:31.209Z,90.90
2018-03-19T18:50:58.747Z,90.90
2018-03-19T18:53:26.328Z,91.00
2018-03-19T18:55:53.889Z,91.00
2018-03-19T18:58:21.432Z,91.20
2018-03-19T19:00:48.988Z,91.00
2018-03-19T19:03:16.554Z,91.00
2018-03-19T19:05:44.102Z,90.80
2018-03-19T19:08:12.433Z,91.00
2018-03-19T19:10:39.969Z,91.00
2018-03-19T19:13:07.596Z,91.10
2018-03-19T19:15:35.175Z,91.30
2018-03-19T19:18:02.700Z,91.20
2018-03-19T19:20:31.019Z,91.30
2018-03-19T19:22:58.592Z,91.30
2018-03-19T19:25:26.177Z,91.20
2018-03-19T19:27:53.716Z,91.20
2018-03-19T19:30:21.274Z,91.30
2018-03-19T19:32:48.790Z,91.30
2018-03-19T19:35:17.075Z,91.30
2018-03-19T19:37:44.631Z,91.30
2018-03-19T19:40:12.156Z,91.30
2018-03-19T19:42:39.870Z,91.30
2018-03-19T19:45:07.474Z,91.30
2018-03-19T19:47:35.015Z,91.30
2018-03-19T19:50:02.552Z,91.30
2018-03-19T19:52:30.099Z,91.30
2018-03-19T19:54:57.649Z,91.50
2018-03-19T19:57:25.255Z,91.40
2018-03-19T19:59:52.811Z,91.40
2018-03-19T20:02:20.338Z,91.50
2018-03-19T20:04:47.886Z,91.50
2018-03-19T20:07:15.455Z,91.50
2018-03-19T20:09:42.995Z,91.30
2018-03-19T20:12:11.275Z,91.60
2018-03-19T20:14:39.600Z,91.60
2018-03-19T20:17:07.126Z,91.60
2018-03-19T20:19:34.668Z,91.60
2018-03-19T20:22:03.006Z,91.50
2018-03-19T20:24:30.551Z,91.50
2018-03-19T20:26:58.093Z,91.70
2018-03-19T20:29:25.729Z,91.70
2018-03-19T20:31:53.232Z,91.80
2018-03-19T20:34:20.780Z,91.80
2018-03-19T20:36:48.352Z,91.90
2018-03-19T20:39:15.903Z,92.00
2018-03-19T20:41:43.454Z,91.70
2018-03-19T20:44:11.020Z,91.70
2018-03-19T20:46:38.578Z,91.80
2018-03-19T20:49:06.182Z,91.70
2018-03-19T20:51:33.714Z,91.70
2018-03-19T20:54:01.240Z,91.90
2018-03-19T20:56:28.774Z,91.80
2018-03-19T20:58:57.124Z,91.90
2018-03-19T21:01:24.661Z,91.90
2018-03-19T21:03:52.185Z,91.90
2018-03-19T21:06:19.740Z,91.70
2018-03-19T21:08:47.287Z,91.80
2018-03-19T21:11:15.578Z,91.60
2018-03-19T21:13:43.143Z,91.60
2018-03-19T21:16:10.689Z,91.50
2018-03-19T21:18:38.988Z,91.50
2018-03-19T21:21:06.546Z,91.60
2018-03-19T21:23:34.076Z,91.80
2018-03-19T21:26:02.905Z,91.70
2018-03-19T21:28:30.454Z,91.70
2018-03-19T21:30:57.973Z,91.50
2018-03-19T21:33:26.290Z,91.50
2018-03-19T21:35:53.855Z,91.40
2018-03-19T21:38:21.379Z,91.40
2018-03-19T21:40:49.669Z,91.40
2018-03-19T21:43:18.000Z,91.40
2018-03-19T21:45:45.540Z,91.40
2018-03-19T21:48:13.075Z,91.40
2018-03-19T21:50:40.626Z,91.50
2018-03-19T21:53:08.183Z,91.50
2018-03-19T21:55:35.730Z,91.50
2018-03-19T21:58:04.073Z,91.60
2018-03-19T22:00:31.623Z,91.60
2018-03-19T22:02:59.134Z,91.60
2018-03-19T22:05:27.460Z,91.40
2018-03-19T22:07:55.052Z,91.40
2018-03-19T22:10:22.551Z,91.50
2018-03-19T22:12:50.107Z,91.50
2018-03-19T22:15:17.652Z,91.50
2018-03-19T22:17:45.941Z,91.50
2018-03-19T22:20:13.517Z,91.50
2018-03-19T22:22:41.067Z,91.50
2018-03-19T22:25:08.593Z,91.50
2018-03-19T22:27:36.938Z,91.40
2018-03-19T22:30:04.473Z,91.40
2018-03-19T22:32:32.033Z,91.20
2018-03-19T22:34:59.603Z,91.20
2018-03-19T22:37:27.156Z,91.10
2018-03-19T22:39:54.704Z,91.30
2018-03-19T22:42:22.262Z,91.30
2018-03-19T22:44:49.817Z,91.30
2018-03-19T22:47:17.368Z,91.20
2018-03-19T22:49:44.956Z,91.30
2018-03-19T22:52:12.497Z,91.20
2018-03-19T22:54:40.041Z,91.30
2018-03-19T22:57:07.603Z,91.30
2018-03-19T22:59:35.164Z,91.30
2018-03-19T23:02:02.705Z,91.50
2018-03-19T23:04:43.029Z,91.50
2018-03-19T23:07:10.562Z,91.50
2018-03-19T23:09:38.094Z,91.60
2018-03-19T23:12:05.664Z,91.50
2018-03-19T23:14:33.198Z,91.40
2018-03-19T23:17:01.522Z,90.90
2018-03-19T23:19:29.100Z,90.90
2018-03-19T23:21:56.622Z,90.80
2018-03-19T23:24:24.160Z,90.80
2018-03-19T23:26:52.474Z,91.20
2018-03-19T23:29:20.012Z,91.20
2018-03-19T23:31:47.552Z,91.30
2018-03-19T23:34:15.867Z,91.50
2018-03-19T23:36:43.387Z,91.50
2018-03-19T23:39:11.676Z,91.70
2018-03-19T23:41:39.246Z,91.60
2018-03-19T23:44:06.794Z,91.70
2018-03-19T23:46:34.315Z,91.70
2018-03-19T23:49:01.872Z,91.80
2018-03-19T23:51:29.391Z,91.60
2018-03-19T23:53:56.910Z,91.50
2018-03-19T23:56:25.249Z,91.40
2018-03-19T23:58:52.781Z,91.40
